sensor_id;sensor_type;location;lat;lon;timestamp;P1;durP1;ratioP1;P2;durP2;ratioP2
38463;SDS011;24243;51.956;5.902;2023-05-07T00:01:45;1.00;;;0.50;;
38463;SDS011;24243;51.956;5.902;2023-05-07T00:04:11;1.05;;;0.40;;
38463;SDS011;24243;51.956;5.902;2023-05-07T00:06:36;0.75;;;0.38;;
38463;SDS011;24243;51.956;5.902;2023-05-07T00:09:02;0.68;;;0.40;;
38463;SDS011;24243;51.956;5.902;2023-05-07T00:11:29;1.08;;;0.47;;
38463;SDS011;24243;51.956;5.902;2023-05-07T00:13:55;0.55;;;0.45;;
38463;SDS011;24243;51.956;5.902;2023-05-07T00:16:21;0.73;;;0.40;;
38463;SDS011;24243;51.956;5.902;2023-05-07T00:18:46;1.75;;;0.60;;
38463;SDS011;24243;51.956;5.902;2023-05-07T00:21:12;0.90;;;0.50;;
38463;SDS011;24243;51.956;5.902;2023-05-07T00:23:38;0.80;;;0.40;;
38463;SDS011;24243;51.956;5.902;2023-05-07T00:26:03;0.82;;;0.40;;
38463;SDS011;24243;51.956;5.902;2023-05-07T00:28:29;0.75;;;0.43;;
38463;SDS011;24243;51.956;5.902;2023-05-07T00:30:55;1.00;;;0.50;;
38463;SDS011;24243;51.956;5.902;2023-05-07T00:33:21;2.70;;;0.80;;
38463;SDS011;24243;51.956;5.902;2023-05-07T00:35:47;1.88;;;0.45;;
38463;SDS011;24243;51.956;5.902;2023-05-07T00:38:13;0.95;;;0.65;;
38463;SDS011;24243;51.956;5.902;2023-05-07T00:40:39;0.43;;;0.28;;
38463;SDS011;24243;51.956;5.902;2023-05-07T00:43:05;0.77;;;0.40;;
38463;SDS011;24243;51.956;5.902;2023-05-07T00:45:32;0.55;;;0.40;;
38463;SDS011;24243;51.956;5.902;2023-05-07T00:48:00;1.10;;;0.45;;
38463;SDS011;24243;51.956;5.902;2023-05-07T00:50:27;0.73;;;0.40;;
38463;SDS011;24243;51.956;5.902;2023-05-07T00:52:54;1.23;;;0.57;;
38463;SDS011;24243;51.956;5.902;2023-05-07T00:55:20;0.73;;;0.50;;
38463;SDS011;24243;51.956;5.902;2023-05-07T00:57:48;0.70;;;0.50;;
38463;SDS011;24243;51.956;5.902;2023-05-07T01:00:15;0.63;;;0.40;;
38463;SDS011;24243;51.956;5.902;2023-05-07T01:02:42;0.70;;;0.50;;
38463;SDS011;24243;51.956;5.902;2023-05-07T01:05:09;0.57;;;0.40;;
38463;SDS011;24243;51.956;5.902;2023-05-07T01:07:40;0.47;;;0.32;;
38463;SDS011;24243;51.956;5.902;2023-05-07T01:10:07;1.20;;;0.47;;
38463;SDS011;24243;51.956;5.902;2023-05-07T01:12:35;1.42;;;0.50;;
38463;SDS011;24243;51.956;5.902;2023-05-07T01:15:02;1.30;;;0.60;;
38463;SDS011;24243;51.956;5.902;2023-05-07T01:17:29;1.67;;;0.75;;
38463;SDS011;24243;51.956;5.902;2023-05-07T01:19:54;0.88;;;0.40;;
38463;SDS011;24243;51.956;5.902;2023-05-07T01:22:28;0.75;;;0.40;;
38463;SDS011;24243;51.956;5.902;2023-05-07T01:24:59;0.35;;;0.35;;
38463;SDS011;24243;51.956;5.902;2023-05-07T01:27:26;0.60;;;0.30;;
38463;SDS011;24243;51.956;5.902;2023-05-07T01:29:52;0.77;;;0.40;;
38463;SDS011;24243;51.956;5.902;2023-05-07T01:32:18;0.43;;;0.43;;
38463;SDS011;24243;51.956;5.902;2023-05-07T01:34:49;0.70;;;0.50;;
38463;SDS011;24243;51.956;5.902;2023-05-07T01:37:17;1.58;;;0.70;;
38463;SDS011;24243;51.956;5.902;2023-05-07T01:39:43;0.70;;;0.40;;
38463;SDS011;24243;51.956;5.902;2023-05-07T01:42:08;0.82;;;0.50;;
38463;SDS011;24243;51.956;5.902;2023-05-07T01:44:34;1.10;;;0.70;;
38463;SDS011;24243;51.956;5.902;2023-05-07T01:47:01;2.15;;;0.50;;
38463;SDS011;24243;51.956;5.902;2023-05-07T01:49:27;0.70;;;0.50;;
38463;SDS011;24243;51.956;5.902;2023-05-07T01:51:53;1.02;;;0.60;;
38463;SDS011;24243;51.956;5.902;2023-05-07T01:54:21;1.30;;;0.60;;
38463;SDS011;24243;51.956;5.902;2023-05-07T01:56:52;0.85;;;0.47;;
38463;SDS011;24243;51.956;5.902;2023-05-07T01:59:18;1.20;;;0.55;;
38463;SDS011;24243;51.956;5.902;2023-05-07T02:01:44;1.38;;;0.80;;
38463;SDS011;24243;51.956;5.902;2023-05-07T02:04:09;0.90;;;0.50;;
38463;SDS011;24243;51.956;5.902;2023-05-07T02:06:35;1.15;;;0.60;;
38463;SDS011;24243;51.956;5.902;2023-05-07T02:09:01;0.75;;;0.50;;
38463;SDS011;24243;51.956;5.902;2023-05-07T02:11:27;0.52;;;0.40;;
38463;SDS011;24243;51.956;5.902;2023-05-07T02:13:52;0.95;;;0.60;;
38463;SDS011;24243;51.956;5.902;2023-05-07T02:16:18;1.13;;;0.70;;
38463;SDS011;24243;51.956;5.902;2023-05-07T02:18:45;0.82;;;0.50;;
38463;SDS011;24243;51.956;5.902;2023-05-07T02:21:10;0.80;;;0.60;;
38463;SDS011;24243;51.956;5.902;2023-05-07T02:23:36;0.50;;;0.40;;
38463;SDS011;24243;51.956;5.902;2023-05-07T02:26:03;0.82;;;0.60;;
38463;SDS011;24243;51.956;5.902;2023-05-07T02:28:29;0.98;;;0.50;;
38463;SDS011;24243;51.956;5.902;2023-05-07T02:30:55;0.65;;;0.50;;
38463;SDS011;24243;51.956;5.902;2023-05-07T02:33:20;0.80;;;0.60;;
38463;SDS011;24243;51.956;5.902;2023-05-07T02:35:46;0.90;;;0.60;;
38463;SDS011;24243;51.956;5.902;2023-05-07T02:38:12;0.88;;;0.50;;
38463;SDS011;24243;51.956;5.902;2023-05-07T02:40:37;0.95;;;0.55;;
38463;SDS011;24243;51.956;5.902;2023-05-07T02:43:04;0.60;;;0.50;;
38463;SDS011;24243;51.956;5.902;2023-05-07T02:45:31;1.42;;;0.80;;
38463;SDS011;24243;51.956;5.902;2023-05-07T02:47:57;0.88;;;0.50;;
38463;SDS011;24243;51.956;5.902;2023-05-07T02:50:23;1.13;;;0.50;;
38463;SDS011;24243;51.956;5.902;2023-05-07T02:52:50;0.80;;;0.45;;
38463;SDS011;24243;51.956;5.902;2023-05-07T02:55:16;2.40;;;0.60;;
38463;SDS011;24243;51.956;5.902;2023-05-07T02:57:41;1.23;;;0.77;;
38463;SDS011;24243;51.956;5.902;2023-05-07T03:00:14;1.00;;;0.60;;
38463;SDS011;24243;51.956;5.902;2023-05-07T03:02:42;1.40;;;0.60;;
38463;SDS011;24243;51.956;5.902;2023-05-07T03:05:07;1.02;;;0.57;;
38463;SDS011;24243;51.956;5.902;2023-05-07T03:07:34;1.65;;;0.70;;
38463;SDS011;24243;51.956;5.902;2023-05-07T03:10:00;1.10;;;0.60;;
38463;SDS011;24243;51.956;5.902;2023-05-07T03:12:26;1.10;;;0.55;;
38463;SDS011;24243;51.956;5.902;2023-05-07T03:14:52;1.00;;;0.63;;
38463;SDS011;24243;51.956;5.902;2023-05-07T03:17:17;0.90;;;0.50;;
38463;SDS011;24243;51.956;5.902;2023-05-07T03:19:43;0.95;;;0.80;;
38463;SDS011;24243;51.956;5.902;2023-05-07T03:22:09;1.38;;;0.50;;
38463;SDS011;24243;51.956;5.902;2023-05-07T03:24:34;1.50;;;0.80;;
38463;SDS011;24243;51.956;5.902;2023-05-07T03:27:00;1.02;;;0.40;;
38463;SDS011;24243;51.956;5.902;2023-05-07T03:29:26;1.10;;;0.60;;
38463;SDS011;24243;51.956;5.902;2023-05-07T03:31:52;1.27;;;0.70;;
38463;SDS011;24243;51.956;5.902;2023-05-07T03:34:17;1.48;;;0.60;;
38463;SDS011;24243;51.956;5.902;2023-05-07T03:36:47;0.93;;;0.50;;
38463;SDS011;24243;51.956;5.902;2023-05-07T03:39:14;1.52;;;0.60;;
38463;SDS011;24243;51.956;5.902;2023-05-07T03:41:39;0.52;;;0.45;;
38463;SDS011;24243;51.956;5.902;2023-05-07T03:44:05;1.63;;;0.45;;
38463;SDS011;24243;51.956;5.902;2023-05-07T03:46:31;0.85;;;0.47;;
38463;SDS011;24243;51.956;5.902;2023-05-07T03:48:57;1.00;;;0.60;;
38463;SDS011;24243;51.956;5.902;2023-05-07T03:51:23;0.93;;;0.60;;
38463;SDS011;24243;51.956;5.902;2023-05-07T03:53:49;1.23;;;0.57;;
38463;SDS011;24243;51.956;5.902;2023-05-07T03:56:17;0.93;;;0.55;;
38463;SDS011;24243;51.956;5.902;2023-05-07T03:58:43;1.73;;;0.50;;
38463;SDS011;24243;51.956;5.902;2023-05-07T04:01:09;0.80;;;0.50;;
38463;SDS011;24243;51.956;5.902;2023-05-07T04:03:35;1.48;;;0.40;;
38463;SDS011;24243;51.956;5.902;2023-05-07T04:06:01;1.10;;;0.57;;
38463;SDS011;24243;51.956;5.902;2023-05-07T04:08:27;1.25;;;0.60;;
38463;SDS011;24243;51.956;5.902;2023-05-07T04:10:56;1.80;;;0.60;;
38463;SDS011;24243;51.956;5.902;2023-05-07T04:13:23;0.80;;;0.47;;
38463;SDS011;24243;51.956;5.902;2023-05-07T04:15:49;1.10;;;0.60;;
38463;SDS011;24243;51.956;5.902;2023-05-07T04:18:15;0.93;;;0.35;;
38463;SDS011;24243;51.956;5.902;2023-05-07T04:20:41;0.60;;;0.50;;
38463;SDS011;24243;51.956;5.902;2023-05-07T04:23:07;0.80;;;0.50;;
38463;SDS011;24243;51.956;5.902;2023-05-07T04:25:33;0.95;;;0.60;;
38463;SDS011;24243;51.956;5.902;2023-05-07T04:27:59;0.80;;;0.57;;
38463;SDS011;24243;51.956;5.902;2023-05-07T04:30:25;0.77;;;0.50;;
38463;SDS011;24243;51.956;5.902;2023-05-07T04:32:51;0.70;;;0.55;;
38463;SDS011;24243;51.956;5.902;2023-05-07T04:35:17;1.15;;;0.60;;
38463;SDS011;24243;51.956;5.902;2023-05-07T04:37:43;0.70;;;0.40;;
38463;SDS011;24243;51.956;5.902;2023-05-07T04:40:09;0.95;;;0.50;;
38463;SDS011;24243;51.956;5.902;2023-05-07T04:42:35;0.50;;;0.40;;
38463;SDS011;24243;51.956;5.902;2023-05-07T04:45:01;0.63;;;0.55;;
38463;SDS011;24243;51.956;5.902;2023-05-07T04:47:27;0.75;;;0.40;;
38463;SDS011;24243;51.956;5.902;2023-05-07T04:49:53;0.85;;;0.50;;
38463;SDS011;24243;51.956;5.902;2023-05-07T04:52:19;1.33;;;0.80;;
38463;SDS011;24243;51.956;5.902;2023-05-07T04:54:45;0.88;;;0.60;;
38463;SDS011;24243;51.956;5.902;2023-05-07T04:57:11;2.65;;;0.57;;
38463;SDS011;24243;51.956;5.902;2023-05-07T04:59:36;0.80;;;0.50;;
38463;SDS011;24243;51.956;5.902;2023-05-07T05:02:02;0.43;;;0.40;;
38463;SDS011;24243;51.956;5.902;2023-05-07T05:04:29;1.02;;;0.60;;
38463;SDS011;24243;51.956;5.902;2023-05-07T05:06:55;0.82;;;0.50;;
38463;SDS011;24243;51.956;5.902;2023-05-07T05:09:21;0.40;;;0.40;;
38463;SDS011;24243;51.956;5.902;2023-05-07T05:11:47;0.70;;;0.40;;
38463;SDS011;24243;51.956;5.902;2023-05-07T05:14:13;0.70;;;0.43;;
38463;SDS011;24243;51.956;5.902;2023-05-07T05:16:38;0.80;;;0.60;;
38463;SDS011;24243;51.956;5.902;2023-05-07T05:19:04;1.20;;;0.50;;
38463;SDS011;24243;51.956;5.902;2023-05-07T05:21:30;0.90;;;0.57;;
38463;SDS011;24243;51.956;5.902;2023-05-07T05:23:57;0.57;;;0.43;;
38463;SDS011;24243;51.956;5.902;2023-05-07T05:26:23;0.70;;;0.40;;
38463;SDS011;24243;51.956;5.902;2023-05-07T05:28:49;1.25;;;0.63;;
38463;SDS011;24243;51.956;5.902;2023-05-07T05:31:15;0.95;;;0.60;;
38463;SDS011;24243;51.956;5.902;2023-05-07T05:33:41;0.75;;;0.70;;
38463;SDS011;24243;51.956;5.902;2023-05-07T05:36:10;1.30;;;0.70;;
38463;SDS011;24243;51.956;5.902;2023-05-07T05:38:38;0.70;;;0.38;;
38463;SDS011;24243;51.956;5.902;2023-05-07T05:41:04;0.60;;;0.50;;
38463;SDS011;24243;51.956;5.902;2023-05-07T05:43:30;0.82;;;0.50;;
38463;SDS011;24243;51.956;5.902;2023-05-07T05:45:56;0.65;;;0.50;;
38463;SDS011;24243;51.956;5.902;2023-05-07T05:48:21;0.90;;;0.30;;
38463;SDS011;24243;51.956;5.902;2023-05-07T05:50:47;2.42;;;0.50;;
38463;SDS011;24243;51.956;5.902;2023-05-07T05:53:13;1.08;;;0.52;;
38463;SDS011;24243;51.956;5.902;2023-05-07T05:55:39;1.25;;;0.75;;
38463;SDS011;24243;51.956;5.902;2023-05-07T05:58:05;1.30;;;0.57;;
38463;SDS011;24243;51.956;5.902;2023-05-07T06:00:31;1.40;;;0.43;;
38463;SDS011;24243;51.956;5.902;2023-05-07T06:02:57;1.85;;;0.50;;
38463;SDS011;24243;51.956;5.902;2023-05-07T06:05:23;0.70;;;0.40;;
38463;SDS011;24243;51.956;5.902;2023-05-07T06:07:48;1.75;;;0.60;;
38463;SDS011;24243;51.956;5.902;2023-05-07T06:10:14;1.70;;;0.60;;
38463;SDS011;24243;51.956;5.902;2023-05-07T06:12:40;0.80;;;0.50;;
38463;SDS011;24243;51.956;5.902;2023-05-07T06:15:05;0.73;;;0.50;;
38463;SDS011;24243;51.956;5.902;2023-05-07T06:17:31;2.35;;;0.50;;
38463;SDS011;24243;51.956;5.902;2023-05-07T06:19:57;0.88;;;0.50;;
38463;SDS011;24243;51.956;5.902;2023-05-07T06:22:23;1.15;;;0.60;;
38463;SDS011;24243;51.956;5.902;2023-05-07T06:24:48;0.77;;;0.57;;
38463;SDS011;24243;51.956;5.902;2023-05-07T06:27:14;1.55;;;0.57;;
38463;SDS011;24243;51.956;5.902;2023-05-07T06:29:40;0.77;;;0.60;;
38463;SDS011;24243;51.956;5.902;2023-05-07T06:32:09;0.60;;;0.40;;
38463;SDS011;24243;51.956;5.902;2023-05-07T06:34:36;1.00;;;0.70;;
38463;SDS011;24243;51.956;5.902;2023-05-07T06:37:02;0.90;;;0.50;;
38463;SDS011;24243;51.956;5.902;2023-05-07T06:39:28;1.30;;;0.35;;
38463;SDS011;24243;51.956;5.902;2023-05-07T06:41:54;1.95;;;0.60;;
38463;SDS011;24243;51.956;5.902;2023-05-07T06:44:20;0.68;;;0.50;;
38463;SDS011;24243;51.956;5.902;2023-05-07T06:46:45;0.80;;;0.57;;
38463;SDS011;24243;51.956;5.902;2023-05-07T06:49:12;0.90;;;0.50;;
38463;SDS011;24243;51.956;5.902;2023-05-07T06:51:38;0.80;;;0.50;;
38463;SDS011;24243;51.956;5.902;2023-05-07T06:54:04;1.27;;;0.65;;
38463;SDS011;24243;51.956;5.902;2023-05-07T06:56:30;1.02;;;0.50;;
38463;SDS011;24243;51.956;5.902;2023-05-07T06:58:56;1.38;;;0.85;;
38463;SDS011;24243;51.956;5.902;2023-05-07T07:01:22;0.98;;;0.63;;
38463;SDS011;24243;51.956;5.902;2023-05-07T07:03:48;1.20;;;0.50;;
38463;SDS011;24243;51.956;5.902;2023-05-07T07:06:14;0.98;;;0.40;;
38463;SDS011;24243;51.956;5.902;2023-05-07T07:08:40;1.73;;;0.85;;
38463;SDS011;24243;51.956;5.902;2023-05-07T07:11:05;1.27;;;0.80;;
38463;SDS011;24243;51.956;5.902;2023-05-07T07:13:31;1.42;;;0.60;;
38463;SDS011;24243;51.956;5.902;2023-05-07T07:15:57;0.75;;;0.50;;
38463;SDS011;24243;51.956;5.902;2023-05-07T07:18:23;1.77;;;0.45;;
38463;SDS011;24243;51.956;5.902;2023-05-07T07:20:48;1.52;;;0.65;;
38463;SDS011;24243;51.956;5.902;2023-05-07T07:23:14;1.15;;;0.60;;
38463;SDS011;24243;51.956;5.902;2023-05-07T07:25:40;1.10;;;0.50;;
38463;SDS011;24243;51.956;5.902;2023-05-07T07:28:06;0.82;;;0.60;;
38463;SDS011;24243;51.956;5.902;2023-05-07T07:30:31;1.08;;;0.60;;
38463;SDS011;24243;51.956;5.902;2023-05-07T07:32:57;1.73;;;1.00;;
38463;SDS011;24243;51.956;5.902;2023-05-07T07:35:28;4.25;;;1.85;;
38463;SDS011;24243;51.956;5.902;2023-05-07T07:37:54;3.15;;;1.80;;
38463;SDS011;24243;51.956;5.902;2023-05-07T07:40:20;7.05;;;4.30;;
38463;SDS011;24243;51.956;5.902;2023-05-07T07:42:46;8.65;;;5.30;;
38463;SDS011;24243;51.956;5.902;2023-05-07T07:45:11;9.15;;;5.82;;
38463;SDS011;24243;51.956;5.902;2023-05-07T07:47:38;11.57;;;7.30;;
38463;SDS011;24243;51.956;5.902;2023-05-07T07:50:04;12.27;;;7.45;;
38463;SDS011;24243;51.956;5.902;2023-05-07T07:52:31;13.75;;;7.90;;
38463;SDS011;24243;51.956;5.902;2023-05-07T07:54:56;14.63;;;7.90;;
38463;SDS011;24243;51.956;5.902;2023-05-07T07:57:22;12.60;;;7.88;;
38463;SDS011;24243;51.956;5.902;2023-05-07T07:59:48;12.43;;;9.45;;
38463;SDS011;24243;51.956;5.902;2023-05-07T08:02:15;13.55;;;9.13;;
38463;SDS011;24243;51.956;5.902;2023-05-07T08:04:41;13.50;;;9.20;;
38463;SDS011;24243;51.956;5.902;2023-05-07T08:07:08;14.57;;;9.85;;
38463;SDS011;24243;51.956;5.902;2023-05-07T08:09:35;11.85;;;8.55;;
38463;SDS011;24243;51.956;5.902;2023-05-07T08:12:01;14.68;;;9.98;;
38463;SDS011;24243;51.956;5.902;2023-05-07T08:14:27;15.43;;;8.95;;
38463;SDS011;24243;51.956;5.902;2023-05-07T08:16:53;13.50;;;9.35;;
38463;SDS011;24243;51.956;5.902;2023-05-07T08:19:19;13.57;;;8.45;;
38463;SDS011;24243;51.956;5.902;2023-05-07T08:21:46;11.10;;;8.27;;
38463;SDS011;24243;51.956;5.902;2023-05-07T08:24:15;13.45;;;8.68;;
38463;SDS011;24243;51.956;5.902;2023-05-07T08:26:42;13.82;;;8.93;;
38463;SDS011;24243;51.956;5.902;2023-05-07T08:29:09;13.02;;;8.25;;
38463;SDS011;24243;51.956;5.902;2023-05-07T08:31:35;9.25;;;7.25;;
38463;SDS011;24243;51.956;5.902;2023-05-07T08:34:00;11.93;;;7.88;;
38463;SDS011;24243;51.956;5.902;2023-05-07T08:36:26;10.07;;;7.57;;
38463;SDS011;24243;51.956;5.902;2023-05-07T08:38:53;9.68;;;6.78;;
38463;SDS011;24243;51.956;5.902;2023-05-07T08:41:20;11.73;;;7.28;;
38463;SDS011;24243;51.956;5.902;2023-05-07T08:43:49;10.48;;;6.82;;
38463;SDS011;24243;51.956;5.902;2023-05-07T08:46:17;9.70;;;6.45;;
38463;SDS011;24243;51.956;5.902;2023-05-07T08:48:44;10.40;;;5.95;;
38463;SDS011;24243;51.956;5.902;2023-05-07T08:51:13;9.30;;;6.03;;
38463;SDS011;24243;51.956;5.902;2023-05-07T08:53:41;8.50;;;5.70;;
38463;SDS011;24243;51.956;5.902;2023-05-07T08:56:10;8.75;;;5.65;;
38463;SDS011;24243;51.956;5.902;2023-05-07T08:58:37;8.48;;;5.35;;
38463;SDS011;24243;51.956;5.902;2023-05-07T09:01:03;8.52;;;5.18;;
38463;SDS011;24243;51.956;5.902;2023-05-07T09:03:33;6.28;;;4.25;;
38463;SDS011;24243;51.956;5.902;2023-05-07T09:05:59;8.02;;;5.13;;
38463;SDS011;24243;51.956;5.902;2023-05-07T09:08:26;8.45;;;5.07;;
38463;SDS011;24243;51.956;5.902;2023-05-07T09:10:52;10.55;;;4.75;;
38463;SDS011;24243;51.956;5.902;2023-05-07T09:13:18;7.70;;;4.82;;
38463;SDS011;24243;51.956;5.902;2023-05-07T09:15:44;7.80;;;4.70;;
38463;SDS011;24243;51.956;5.902;2023-05-07T09:18:10;6.38;;;4.72;;
38463;SDS011;24243;51.956;5.902;2023-05-07T09:20:37;7.00;;;4.93;;
38463;SDS011;24243;51.956;5.902;2023-05-07T09:23:03;13.90;;;8.60;;
38463;SDS011;24243;51.956;5.902;2023-05-07T09:25:32;9.88;;;8.15;;
38463;SDS011;24243;51.956;5.902;2023-05-07T09:28:00;8.38;;;7.55;;
38463;SDS011;24243;51.956;5.902;2023-05-07T09:30:30;6.78;;;6.07;;
38463;SDS011;24243;51.956;5.902;2023-05-07T09:33:00;8.65;;;7.50;;
38463;SDS011;24243;51.956;5.902;2023-05-07T09:35:27;7.00;;;6.28;;
38463;SDS011;24243;51.956;5.902;2023-05-07T09:37:55;8.63;;;6.10;;
38463;SDS011;24243;51.956;5.902;2023-05-07T09:40:27;9.35;;;7.35;;
38463;SDS011;24243;51.956;5.902;2023-05-07T09:42:54;6.55;;;5.95;;
38463;SDS011;24243;51.956;5.902;2023-05-07T09:45:29;7.90;;;6.47;;
38463;SDS011;24243;51.956;5.902;2023-05-07T09:47:55;9.13;;;7.00;;
38463;SDS011;24243;51.956;5.902;2023-05-07T09:50:28;8.75;;;6.75;;
38463;SDS011;24243;51.956;5.902;2023-05-07T09:52:55;8.50;;;7.43;;
38463;SDS011;24243;51.956;5.902;2023-05-07T09:55:22;8.30;;;6.78;;
38463;SDS011;24243;51.956;5.902;2023-05-07T09:57:52;7.80;;;6.45;;
38463;SDS011;24243;51.956;5.902;2023-05-07T10:00:19;7.45;;;6.43;;
38463;SDS011;24243;51.956;5.902;2023-05-07T10:02:50;7.32;;;6.63;;
38463;SDS011;24243;51.956;5.902;2023-05-07T10:05:17;7.90;;;7.20;;
38463;SDS011;24243;51.956;5.902;2023-05-07T10:07:45;7.15;;;6.35;;
38463;SDS011;24243;51.956;5.902;2023-05-07T10:10:11;7.53;;;6.78;;
38463;SDS011;24243;51.956;5.902;2023-05-07T10:12:38;6.45;;;4.95;;
38463;SDS011;24243;51.956;5.902;2023-05-07T10:15:08;7.90;;;5.53;;
38463;SDS011;24243;51.956;5.902;2023-05-07T10:17:35;7.15;;;5.63;;
38463;SDS011;24243;51.956;5.902;2023-05-07T10:20:06;8.10;;;5.82;;
38463;SDS011;24243;51.956;5.902;2023-05-07T10:22:43;7.03;;;6.32;;
38463;SDS011;24243;51.956;5.902;2023-05-07T10:25:44;6.93;;;6.10;;
38463;SDS011;24243;51.956;5.902;2023-05-07T10:28:04;7.72;;;6.45;;
38463;SDS011;24243;51.956;5.902;2023-05-07T10:33:29;8.23;;;7.15;;
38463;SDS011;24243;51.956;5.902;2023-05-07T10:35:55;8.10;;;6.45;;
38463;SDS011;24243;51.956;5.902;2023-05-07T10:38:25;7.65;;;6.78;;
38463;SDS011;24243;51.956;5.902;2023-05-07T10:40:52;6.78;;;5.75;;
38463;SDS011;24243;51.956;5.902;2023-05-07T10:43:18;5.88;;;5.30;;
38463;SDS011;24243;51.956;5.902;2023-05-07T10:46:01;5.85;;;5.13;;
38463;SDS011;24243;51.956;5.902;2023-05-07T10:51:33;5.25;;;4.70;;
38463;SDS011;24243;51.956;5.902;2023-05-07T10:56:35;5.25;;;4.75;;
38463;SDS011;24243;51.956;5.902;2023-05-07T11:02:02;4.47;;;4.07;;
38463;SDS011;24243;51.956;5.902;2023-05-07T11:04:28;4.70;;;4.20;;
38463;SDS011;24243;51.956;5.902;2023-05-07T11:15:04;4.85;;;4.30;;
38463;SDS011;24243;51.956;5.902;2023-05-07T11:17:34;5.35;;;3.53;;
38463;SDS011;24243;51.956;5.902;2023-05-07T11:20:16;4.43;;;3.35;;
38463;SDS011;24243;51.956;5.902;2023-05-07T11:22:42;3.85;;;3.17;;
38463;SDS011;24243;51.956;5.902;2023-05-07T11:25:08;4.30;;;3.45;;
38463;SDS011;24243;51.956;5.902;2023-05-07T11:27:34;5.13;;;3.72;;
38463;SDS011;24243;51.956;5.902;2023-05-07T11:30:00;4.28;;;3.65;;
38463;SDS011;24243;51.956;5.902;2023-05-07T11:32:27;4.93;;;4.25;;
38463;SDS011;24243;51.956;5.902;2023-05-07T11:34:54;5.68;;;4.00;;
38463;SDS011;24243;51.956;5.902;2023-05-07T11:37:21;5.40;;;3.40;;
38463;SDS011;24243;51.956;5.902;2023-05-07T11:39:48;4.72;;;3.58;;
38463;SDS011;24243;51.956;5.902;2023-05-07T11:42:31;5.40;;;3.85;;
38463;SDS011;24243;51.956;5.902;2023-05-07T11:44:57;5.05;;;3.97;;
38463;SDS011;24243;51.956;5.902;2023-05-07T11:47:23;5.18;;;4.32;;
38463;SDS011;24243;51.956;5.902;2023-05-07T11:49:53;5.70;;;4.68;;
38463;SDS011;24243;51.956;5.902;2023-05-07T11:52:20;4.97;;;4.47;;
38463;SDS011;24243;51.956;5.902;2023-05-07T11:54:50;6.53;;;5.30;;
38463;SDS011;24243;51.956;5.902;2023-05-07T11:57:20;4.85;;;4.35;;
38463;SDS011;24243;51.956;5.902;2023-05-07T11:59:47;6.45;;;4.68;;
38463;SDS011;24243;51.956;5.902;2023-05-07T12:02:13;5.07;;;4.60;;
38463;SDS011;24243;51.956;5.902;2023-05-07T12:04:40;5.18;;;4.68;;
38463;SDS011;24243;51.956;5.902;2023-05-07T12:07:12;4.75;;;4.35;;
38463;SDS011;24243;51.956;5.902;2023-05-07T12:09:39;4.05;;;3.65;;
38463;SDS011;24243;51.956;5.902;2023-05-07T12:12:08;5.10;;;4.32;;
38463;SDS011;24243;51.956;5.902;2023-05-07T12:14:41;4.95;;;4.28;;
38463;SDS011;24243;51.956;5.902;2023-05-07T12:17:08;5.38;;;4.60;;
38463;SDS011;24243;51.956;5.902;2023-05-07T12:19:35;5.38;;;4.68;;
38463;SDS011;24243;51.956;5.902;2023-05-07T12:22:05;4.72;;;4.22;;
38463;SDS011;24243;51.956;5.902;2023-05-07T12:24:48;6.63;;;4.63;;
38463;SDS011;24243;51.956;5.902;2023-05-07T12:27:21;4.10;;;3.60;;
38463;SDS011;24243;51.956;5.902;2023-05-07T12:29:47;4.32;;;3.85;;
38463;SDS011;24243;51.956;5.902;2023-05-07T12:32:14;4.80;;;3.67;;
38463;SDS011;24243;51.956;5.902;2023-05-07T12:34:41;4.43;;;3.40;;
38463;SDS011;24243;51.956;5.902;2023-05-07T12:37:06;3.83;;;3.33;;
38463;SDS011;24243;51.956;5.902;2023-05-07T12:39:32;3.78;;;2.88;;
38463;SDS011;24243;51.956;5.902;2023-05-07T12:41:59;3.25;;;2.85;;
38463;SDS011;24243;51.956;5.902;2023-05-07T12:44:25;3.75;;;2.67;;
38463;SDS011;24243;51.956;5.902;2023-05-07T12:46:54;3.60;;;2.72;;
38463;SDS011;24243;51.956;5.902;2023-05-07T12:49:20;3.75;;;2.40;;
38463;SDS011;24243;51.956;5.902;2023-05-07T12:51:48;2.95;;;2.70;;
38463;SDS011;24243;51.956;5.902;2023-05-07T12:54:30;2.58;;;2.30;;
38463;SDS011;24243;51.956;5.902;2023-05-07T12:57:04;3.42;;;2.38;;
38463;SDS011;24243;51.956;5.902;2023-05-07T12:59:35;2.83;;;2.45;;
38463;SDS011;24243;51.956;5.902;2023-05-07T13:02:03;4.65;;;2.40;;
38463;SDS011;24243;51.956;5.902;2023-05-07T13:04:29;3.53;;;2.72;;
38463;SDS011;24243;51.956;5.902;2023-05-07T13:06:55;3.83;;;2.50;;
38463;SDS011;24243;51.956;5.902;2023-05-07T13:09:21;2.92;;;2.20;;
38463;SDS011;24243;51.956;5.902;2023-05-07T13:11:46;3.22;;;2.22;;
38463;SDS011;24243;51.956;5.902;2023-05-07T13:14:12;3.17;;;2.20;;
38463;SDS011;24243;51.956;5.902;2023-05-07T13:16:38;2.80;;;2.15;;
38463;SDS011;24243;51.956;5.902;2023-05-07T13:19:03;2.67;;;2.10;;
38463;SDS011;24243;51.956;5.902;2023-05-07T13:21:29;3.72;;;2.53;;
38463;SDS011;24243;51.956;5.902;2023-05-07T13:23:58;2.22;;;1.88;;
38463;SDS011;24243;51.956;5.902;2023-05-07T13:26:24;2.83;;;2.03;;
38463;SDS011;24243;51.956;5.902;2023-05-07T13:28:51;2.10;;;1.90;;
38463;SDS011;24243;51.956;5.902;2023-05-07T13:31:18;2.67;;;2.00;;
38463;SDS011;24243;51.956;5.902;2023-05-07T13:33:45;2.97;;;1.85;;
38463;SDS011;24243;51.956;5.902;2023-05-07T13:36:11;2.30;;;1.85;;
38463;SDS011;24243;51.956;5.902;2023-05-07T13:38:37;2.83;;;2.05;;
38463;SDS011;24243;51.956;5.902;2023-05-07T13:41:03;2.58;;;1.90;;
38463;SDS011;24243;51.956;5.902;2023-05-07T13:43:29;2.50;;;2.00;;
38463;SDS011;24243;51.956;5.902;2023-05-07T13:45:56;2.85;;;2.38;;
38463;SDS011;24243;51.956;5.902;2023-05-07T13:48:22;2.30;;;1.83;;
38463;SDS011;24243;51.956;5.902;2023-05-07T13:50:48;2.88;;;1.83;;
38463;SDS011;24243;51.956;5.902;2023-05-07T13:53:13;2.80;;;2.00;;
38463;SDS011;24243;51.956;5.902;2023-05-07T13:55:43;2.85;;;2.30;;
38463;SDS011;24243;51.956;5.902;2023-05-07T13:58:09;1.63;;;1.52;;
38463;SDS011;24243;51.956;5.902;2023-05-07T14:00:35;4.15;;;2.30;;
38463;SDS011;24243;51.956;5.902;2023-05-07T14:03:00;2.78;;;1.92;;
38463;SDS011;24243;51.956;5.902;2023-05-07T14:05:26;2.67;;;1.92;;
38463;SDS011;24243;51.956;5.902;2023-05-07T14:07:53;2.03;;;1.58;;
38463;SDS011;24243;51.956;5.902;2023-05-07T14:12:56;4.00;;;2.65;;
38463;SDS011;24243;51.956;5.902;2023-05-07T14:15:22;3.85;;;3.30;;
38463;SDS011;24243;51.956;5.902;2023-05-07T14:17:48;6.32;;;4.22;;
38463;SDS011;24243;51.956;5.902;2023-05-07T14:20:13;5.60;;;3.97;;
38463;SDS011;24243;51.956;5.902;2023-05-07T14:22:39;4.78;;;4.13;;
38463;SDS011;24243;51.956;5.902;2023-05-07T14:25:05;5.13;;;4.13;;
38463;SDS011;24243;51.956;5.902;2023-05-07T14:27:31;5.13;;;3.83;;
38463;SDS011;24243;51.956;5.902;2023-05-07T14:29:57;5.88;;;4.63;;
38463;SDS011;24243;51.956;5.902;2023-05-07T14:32:23;5.88;;;4.55;;
38463;SDS011;24243;51.956;5.902;2023-05-07T14:34:49;4.70;;;4.10;;
38463;SDS011;24243;51.956;5.902;2023-05-07T14:37:15;5.68;;;5.00;;
38463;SDS011;24243;51.956;5.902;2023-05-07T14:39:41;5.75;;;4.93;;
38463;SDS011;24243;51.956;5.902;2023-05-07T14:42:07;5.18;;;4.22;;
38463;SDS011;24243;51.956;5.902;2023-05-07T14:44:33;5.30;;;4.30;;
38463;SDS011;24243;51.956;5.902;2023-05-07T14:47:00;5.43;;;4.15;;
38463;SDS011;24243;51.956;5.902;2023-05-07T14:49:25;5.35;;;4.20;;
38463;SDS011;24243;51.956;5.902;2023-05-07T14:51:51;4.47;;;3.47;;
38463;SDS011;24243;51.956;5.902;2023-05-07T14:54:17;4.20;;;3.80;;
38463;SDS011;24243;51.956;5.902;2023-05-07T14:56:42;5.68;;;3.78;;
38463;SDS011;24243;51.956;5.902;2023-05-07T14:59:08;6.95;;;3.88;;
38463;SDS011;24243;51.956;5.902;2023-05-07T15:01:35;3.92;;;2.95;;
38463;SDS011;24243;51.956;5.902;2023-05-07T15:04:04;3.22;;;2.55;;
38463;SDS011;24243;51.956;5.902;2023-05-07T15:06:30;2.92;;;2.33;;
38463;SDS011;24243;51.956;5.902;2023-05-07T15:08:56;2.92;;;2.13;;